Time;durP1;ratioP1;P1;durP2;ratioP2;P2;SDS_P1;SDS_P2;PMS_P1;PMS_P2;Temp;Humidity;BMP_temperature;BMP_pressure;BME280_temperature;BME280_humidity;BME280_pressure;Samples;Min_cycle;Max_cycle;Signal;HPM_P1;HPM_P2
2023/06/02 00:01:49;;;;;;;9.87;5.70;;;;;;;17.63;74.41;96924.81;5029438;28;20187;-79
2023/06/02 00:04:17;;;;;;;6.80;5.93;;;;;;;17.62;74.39;96931.81;5044279;28;20203;-77
2023/06/02 00:06:45;;;;;;;7.83;6.00;;;;;;;17.67;75.43;96934.09;5047075;28;20190;-76
2023/06/02 00:09:13;;;;;;;8.57;6.37;;;;;;;17.72;75.70;96924.94;5046630;28;20213;-80
2023/06/02 00:11:40;;;;;;;10.87;7.13;;;;;;;17.55;77.05;96929.78;5046384;28;20195;-79
2023/06/02 00:14:08;;;;;;;8.93;6.83;;;;;;;17.50;77.74;96932.75;5047020;28;20223;-79
2023/06/02 00:16:45;;;;;;;7.60;6.60;;;;;;;17.47;77.86;96932.97;5045931;28;20188;-78
2023/06/02 00:19:13;;;;;;;8.77;6.33;;;;;;;17.40;78.37;96936.13;5029286;28;20778;-77
2023/06/02 00:21:41;;;;;;;8.50;6.90;;;;;;;17.24;78.44;96931.22;5045705;28;20298;-79
2023/06/02 00:24:09;;;;;;;15.47;7.33;;;;;;;17.01;79.16;96904.13;5046944;28;20203;-70
2023/06/02 00:26:36;;;;;;;8.37;6.37;;;;;;;16.95;79.39;96924.66;5046501;28;20750;-75
2023/06/02 00:29:03;;;;;;;8.90;7.20;;;;;;;16.72;80.14;96934.16;5028334;28;20192;-72
2023/06/02 00:31:31;;;;;;;7.27;6.50;;;;;;;16.47;81.17;96921.13;5012648;28;20231;-72
2023/06/02 00:33:58;;;;;;;11.00;6.87;;;;;;;16.63;80.74;96916.50;5060675;28;20222;-80
2023/06/02 00:36:25;;;;;;;11.90;6.73;;;;;;;16.52;81.38;96926.91;5028916;28;20206;-80
2023/06/02 00:38:52;;;;;;;11.53;7.10;;;;;;;16.30;81.92;96911.03;5047888;28;20204;-75
2023/06/02 00:41:20;;;;;;;11.00;7.33;;;;;;;16.07;83.09;96898.75;5032643;28;20198;-75
2023/06/02 00:43:47;;;;;;;9.23;6.77;;;;;;;16.06;84.47;96912.75;5049749;28;20226;-80
2023/06/02 00:46:15;;;;;;;11.30;7.10;;;;;;;16.08;84.52;96916.94;5031953;28;20187;-75
2023/06/02 00:48:42;;;;;;;16.23;9.40;;;;;;;16.14;84.10;96911.28;5032635;28;20185;-79
2023/06/02 00:51:10;;;;;;;8.40;7.27;;;;;;;16.12;85.00;96913.16;5030845;28;20706;-77
2023/06/02 00:53:38;;;;;;;11.40;7.90;;;;;;;16.14;84.92;96916.50;5050289;28;20618;-79
2023/06/02 00:56:05;;;;;;;9.87;7.40;;;;;;;15.77;85.67;96900.84;5030803;28;20190;-77
2023/06/02 00:58:37;;;;;;;9.20;7.60;;;;;;;15.67;86.21;96913.72;5050206;28;20281;-79
2023/06/02 01:01:10;;;;;;;18.60;8.30;;;;;;;15.69;86.40;96911.84;5049693;28;20642;-78
2023/06/02 01:03:42;;;;;;;12.33;7.63;;;;;;;15.63;85.96;96909.66;5049275;28;20277;-76
2023/06/02 01:06:11;;;;;;;15.33;8.77;;;;;;;15.59;86.29;96910.78;5032151;28;20194;-76
2023/06/02 01:08:40;;;;;;;10.47;9.00;;;;;;;15.62;85.96;96915.78;5048520;28;20765;-79
2023/06/02 01:11:08;;;;;;;11.60;8.10;;;;;;;15.81;85.02;96907.53;5050004;28;20186;-76
2023/06/02 01:13:35;;;;;;;11.47;9.63;;;;;;;15.76;85.19;96905.28;5048426;28;20762;-77
2023/06/02 01:16:02;;;;;;;15.73;9.73;;;;;;;15.57;85.59;96894.41;5031904;28;20742;-75
2023/06/02 01:18:35;;;;;;;14.00;9.50;;;;;;;15.58;86.43;96903.88;5049091;28;20205;-77
2023/06/02 01:21:05;;;;;;;12.23;9.30;;;;;;;15.32;87.76;96897.78;5031660;28;20193;-72
2023/06/02 01:23:34;;;;;;;14.20;10.10;;;;;;;15.29;88.30;96891.94;5033319;28;20193;-76
2023/06/02 01:26:05;;;;;;;16.67;9.63;;;;;;;15.68;86.82;96891.91;5030557;28;20186;-72
2023/06/02 01:28:32;;;;;;;11.97;9.53;;;;;;;15.72;86.02;96893.38;5031837;28;20193;-74
2023/06/02 01:31:11;;;;;;;14.23;10.33;;;;;;;15.57;86.60;96910.06;5048107;28;20670;-75
2023/06/02 01:33:58;;;;;;;19.83;10.37;;;;;;;15.49;87.40;96904.53;5048697;28;20233;-70
2023/06/02 01:36:28;;;;;;;13.37;9.60;;;;;;;15.64;86.73;96907.88;5049346;28;20194;-72
2023/06/02 01:38:57;;;;;;;13.70;10.00;;;;;;;15.64;86.72;96903.47;5030025;28;20236;-71
2023/06/02 01:41:27;;;;;;;11.53;10.17;;;;;;;15.52;86.87;96901.69;5049439;28;20236;-71
2023/06/02 01:43:56;;;;;;;13.17;10.37;;;;;;;15.43;86.72;96905.75;5047954;28;20244;-71
2023/06/02 01:46:25;;;;;;;15.30;11.77;;;;;;;15.16;87.76;96873.66;5048975;28;20626;-71
2023/06/02 01:48:54;;;;;;;12.80;10.57;;;;;;;15.30;87.87;96885.78;5030832;28;20190;-71
2023/06/02 01:51:21;;;;;;;13.83;10.70;;;;;;;15.42;86.82;96892.78;5030418;28;20178;-73
2023/06/02 01:53:48;;;;;;;14.20;10.97;;;;;;;15.56;85.99;96881.47;5031086;28;20245;-73
2023/06/02 01:56:16;;;;;;;13.77;11.23;;;;;;;15.59;85.59;96889.06;5029787;28;20773;-71
2023/06/02 01:58:43;;;;;;;12.73;10.60;;;;;;;15.89;84.94;96889.59;5014619;28;20190;-71
2023/06/02 02:01:10;;;;;;;17.73;10.10;;;;;;;15.78;84.18;96890.34;5041508;28;20188;-70
2023/06/02 02:03:38;;;;;;;12.60;10.57;;;;;;;15.61;84.90;96889.78;5050889;28;20189;-70
2023/06/02 02:06:05;;;;;;;12.83;10.70;;;;;;;15.44;85.30;96889.16;5068265;28;20210;-70
2023/06/02 02:08:32;;;;;;;14.27;9.97;;;;;;;15.33;85.94;96894.22;5068008;28;20185;-75
2023/06/02 02:11:00;;;;;;;13.37;9.80;;;;;;;15.28;86.13;96893.72;5068916;28;20186;-79
2023/06/02 02:13:27;;;;;;;13.60;10.93;;;;;;;15.13;86.47;96883.44;5067088;28;20189;-77
2023/06/02 02:15:55;;;;;;;14.07;11.00;;;;;;;14.89;86.18;96859.00;5050713;28;20197;-76
2023/06/02 02:18:24;;;;;;;16.30;10.77;;;;;;;15.04;86.85;96892.75;5067199;28;20668;-76
2023/06/02 02:20:51;;;;;;;19.77;13.87;;;;;;;14.99;87.33;96886.13;5068582;28;20185;-76
2023/06/02 02:23:19;;;;;;;15.70;11.97;;;;;;;15.17;86.49;96887.53;5049965;28;20196;-75
2023/06/02 02:25:46;;;;;;;13.57;9.77;;;;;;;15.21;85.74;96891.59;5049864;28;20294;-71
2023/06/02 02:28:13;;;;;;;12.53;9.63;;;;;;;15.37;84.97;96884.44;5068242;28;20188;-76
2023/06/02 02:30:40;;;;;;;13.13;10.47;;;;;;;15.43;84.23;96886.66;5048938;28;20229;-70
2023/06/02 02:33:07;;;;;;;12.00;9.20;;;;;;;15.49;84.01;96883.66;5033738;28;20264;-74
2023/06/02 02:35:35;;;;;;;12.30;8.40;;;;;;;15.64;83.41;96879.97;5048814;28;20307;-74
2023/06/02 02:38:02;;;;;;;9.40;8.37;;;;;;;15.82;81.98;96883.13;5068154;28;20292;-77
2023/06/02 02:40:29;;;;;;;12.07;8.73;;;;;;;15.50;82.82;96869.63;5067222;28;20185;-79
2023/06/02 02:42:56;;;;;;;19.90;13.53;;;;;;;15.30;84.31;96883.16;5083214;28;20194;-79
2023/06/02 02:45:24;;;;;;;14.47;10.77;;;;;;;15.06;85.67;96874.38;5050308;28;20695;-78
2023/06/02 02:47:51;;;;;;;12.67;9.50;;;;;;;15.15;85.78;96873.75;5066939;28;20644;-70
2023/06/02 02:50:18;;;;;;;16.77;12.40;;;;;;;15.14;85.71;96869.47;5068013;28;20189;-71
2023/06/02 02:52:45;;;;;;;12.50;10.60;;;;;;;15.28;85.68;96890.25;5048524;28;20681;-71
2023/06/02 02:55:13;;;;;;;13.97;10.37;;;;;;;15.38;85.36;96880.88;5049887;28;20695;-72
2023/06/02 02:57:43;;;;;;;11.70;9.57;;;;;;;15.63;83.93;96883.53;5066594;28;20266;-72
2023/06/02 03:00:11;;;;;;;14.17;9.90;;;;;;;15.80;82.69;96890.22;5067160;28;20181;-72
2023/06/02 03:02:38;;;;;;;12.80;9.07;;;;;;;15.91;82.03;96885.91;5049570;28;20189;-73
2023/06/02 03:05:06;;;;;;;16.97;9.70;;;;;;;15.79;81.79;96881.53;5048662;28;20189;-71
2023/06/02 03:07:39;;;;;;;12.67;9.80;;;;;;;15.81;81.55;96870.97;5049943;28;20196;-71
2023/06/02 03:10:07;;;;;;;13.97;9.97;;;;;;;15.85;81.33;96875.91;5048552;28;20723;-70
2023/06/02 03:12:35;;;;;;;12.70;9.50;;;;;;;15.95;81.01;96884.75;5033119;28;20186;-73
2023/06/02 03:15:03;;;;;;;12.10;9.83;;;;;;;15.91;80.53;96882.50;5031428;28;20256;-69
2023/06/02 03:17:30;;;;;;;10.70;8.67;;;;;;;16.05;79.76;96880.56;5023344;28;20808;-73
2023/06/02 03:19:58;;;;;;;13.10;9.60;;;;;;;16.05;79.81;96884.97;5027520;28;20190;-70
2023/06/02 03:22:25;;;;;;;12.07;9.03;;;;;;;16.18;79.34;96870.94;5026357;28;20660;-73
2023/06/02 03:24:52;;;;;;;11.20;8.87;;;;;;;16.31;78.62;96891.81;5026215;28;20187;-73
2023/06/02 03:27:20;;;;;;;15.63;9.63;;;;;;;16.27;78.75;96885.13;5024900;28;20183;-75
2023/06/02 03:29:53;;;;;;;13.93;9.20;;;;;;;16.19;78.99;96884.84;5027718;28;20592;-73
2023/06/02 03:32:24;;;;;;;13.40;8.73;;;;;;;15.93;80.48;96886.66;5035471;28;20195;-72
2023/06/02 03:34:52;;;;;;;10.83;8.77;;;;;;;15.91;80.54;96872.84;5026912;28;20232;-73
2023/06/02 03:37:20;;;;;;;12.37;7.77;;;;;;;16.02;80.09;96880.78;5045172;28;20202;-70
2023/06/02 03:39:48;;;;;;;11.67;9.20;;;;;;;16.01;80.12;96875.69;5028108;28;20194;-73
2023/06/02 03:42:16;;;;;;;14.50;8.67;;;;;;;15.82;80.91;96878.72;5028737;28;20190;-70
2023/06/02 03:44:43;;;;;;;14.67;9.03;;;;;;;15.61;82.13;96868.91;5061196;28;20213;-70
2023/06/02 03:47:10;;;;;;;12.53;7.87;;;;;;;15.93;82.03;96885.84;5062714;28;20213;-73
2023/06/02 03:49:37;;;;;;;11.50;7.83;;;;;;;16.17;80.58;96876.28;5027393;28;20194;-70
2023/06/02 03:52:07;;;;;;;10.23;8.13;;;;;;;16.42;79.45;96880.59;5009083;28;20201;-70
2023/06/02 03:54:34;;;;;;;11.23;7.83;;;;;;;16.74;77.72;96886.97;5026947;28;20258;-70
2023/06/02 03:57:01;;;;;;;10.60;7.50;;;;;;;16.59;77.63;96875.84;5024790;28;20184;-73
2023/06/02 03:59:30;;;;;;;16.33;7.80;;;;;;;16.70;77.00;96857.59;5026023;28;20229;-75
2023/06/02 04:01:57;;;;;;;12.70;7.93;;;;;;;16.80;77.32;96887.38;5041087;28;20601;-71
2023/06/02 04:04:25;;;;;;;17.30;10.23;;;;;;;16.83;76.94;96883.69;5010016;28;20196;-71
2023/06/02 04:06:53;;;;;;;15.53;9.83;;;;;;;17.04;75.93;96875.09;5041138;28;20241;-77
2023/06/02 04:09:20;;;;;;;21.90;14.80;;;;;;;16.89;76.63;96876.25;5036587;28;20888;-71
2023/06/02 04:11:48;;;;;;;12.97;10.03;;;;;;;17.05;76.09;96857.63;5028580;28;20282;-75
2023/06/02 04:14:16;;;;;;;9.50;6.90;;;;;;;17.37;74.31;96873.53;5030644;28;20226;-70
2023/06/02 04:16:49;;;;;;;10.50;6.57;;;;;;;17.38;74.02;96876.03;5065604;28;20222;-77
2023/06/02 04:19:23;;;;;;;17.63;6.47;;;;;;;17.39;74.15;96872.50;5047620;28;20234;-73
2023/06/02 04:21:50;;;;;;;8.57;6.57;;;;;;;17.62;73.36;96876.81;5050923;28;20203;-72
2023/06/02 04:24:17;;;;;;;8.73;6.80;;;;;;;17.43;73.99;96866.06;5031389;28;20205;-79
2023/06/02 04:26:45;;;;;;;10.03;6.53;;;;;;;17.59;73.59;96871.84;5032531;28;20210;-76
2023/06/02 04:29:14;;;;;;;12.07;7.30;;;;;;;17.73;73.68;96870.75;5032635;28;20210;-79
2023/06/02 04:31:47;;;;;;;8.30;6.80;;;;;;;18.00;72.30;96878.28;5049687;28;20783;-72
2023/06/02 04:34:19;;;;;;;10.20;7.07;;;;;;;18.00;71.74;96873.88;5032460;28;20705;-71
2023/06/02 04:36:46;;;;;;;9.63;6.60;;;;;;;18.26;70.80;96866.59;5030648;28;20204;-73
2023/06/02 04:39:14;;;;;;;10.90;6.67;;;;;;;18.65;69.42;96881.78;5065897;28;20212;-74
2023/06/02 04:41:42;;;;;;;10.07;7.93;;;;;;;18.47;69.61;96867.53;5031354;28;20597;-79
2023/06/02 04:44:11;;;;;;;8.77;7.63;;;;;;;18.69;69.16;96859.63;5031689;28;20646;-79
2023/06/02 04:46:38;;;;;;;8.87;7.97;;;;;;;18.95;68.64;96866.19;5050343;28;20192;-79
2023/06/02 04:49:09;;;;;;;12.47;8.43;;;;;;;19.26;67.25;96860.09;5031055;28;20252;-79
2023/06/02 04:51:37;;;;;;;12.80;7.50;;;;;;;19.70;66.01;96860.81;5032195;28;20208;-72
2023/06/02 04:54:07;;;;;;;15.23;8.10;;;;;;;19.58;66.58;96869.75;5014863;28;20243;-73
2023/06/02 04:56:36;;;;;;;16.73;8.37;;;;;;;19.82;66.04;96865.84;5032064;28;20204;-76
2023/06/02 04:59:07;;;;;;;9.20;8.20;;;;;;;20.19;64.51;96874.03;5031206;28;20209;-76
2023/06/02 05:01:35;;;;;;;13.57;8.63;;;;;;;20.00;64.79;96877.41;5015273;28;20194;-80
2023/06/02 05:04:03;;;;;;;13.53;9.80;;;;;;;19.60;66.07;96867.81;5032068;28;20178;-76
2023/06/02 05:06:31;;;;;;;14.53;10.57;;;;;;;19.95;65.62;96876.97;5030849;28;20201;-78
2023/06/02 05:09:00;;;;;;;13.63;10.77;;;;;;;20.07;65.62;96878.53;5032010;28;20204;-72
2023/06/02 05:11:27;;;;;;;17.80;11.63;;;;;;;20.44;65.08;96878.88;5030388;28;20769;-76
2023/06/02 05:13:55;;;;;;;12.83;10.87;;;;;;;20.75;64.09;96877.78;5049591;28;20201;-75
2023/06/02 05:16:23;;;;;;;15.83;10.57;;;;;;;20.65;64.62;96876.16;5013804;28;20244;-73
2023/06/02 05:18:51;;;;;;;14.70;10.23;;;;;;;20.94;63.71;96882.25;5048902;28;20618;-76
2023/06/02 05:21:19;;;;;;;13.70;9.17;;;;;;;20.74;63.51;96883.19;5030870;28;20689;-74
2023/06/02 05:23:47;;;;;;;11.67;9.03;;;;;;;20.96;62.66;96878.53;5029727;28;20182;-74
2023/06/02 05:26:15;;;;;;;13.03;8.07;;;;;;;20.80;61.66;96872.13;5064917;28;20190;-74
2023/06/02 05:28:42;;;;;;;7.73;6.90;;;;;;;20.92;61.56;96878.94;5013256;28;20251;-73
2023/06/02 05:31:10;;;;;;;9.13;6.00;;;;;;;20.76;61.52;96882.09;5030898;28;20229;-74
2023/06/02 05:33:38;;;;;;;9.33;5.60;;;;;;;20.69;62.63;96877.53;5069523;28;20190;-79
2023/06/02 05:36:06;;;;;;;7.67;5.63;;;;;;;21.18;62.35;96880.09;5068487;28;20659;-71
2023/06/02 05:38:34;;;;;;;8.30;5.43;;;;;;;21.57;60.83;96872.97;5050658;28;20677;-77
2023/06/02 05:41:01;;;;;;;11.60;6.33;;;;;;;21.57;60.78;96871.19;5049206;28;20194;-75
2023/06/02 05:43:28;;;;;;;11.33;6.00;;;;;;;21.30;60.86;96871.06;5050093;28;20198;-70
2023/06/02 05:45:56;;;;;;;10.13;5.73;;;;;;;21.44;60.76;96878.53;5049474;28;20200;-73
2023/06/02 05:48:24;;;;;;;12.30;6.87;;;;;;;21.55;60.27;96880.19;5050868;28;20184;-74
2023/06/02 05:50:53;;;;;;;10.67;5.73;;;;;;;21.91;60.24;96868.88;5065810;28;20698;-72
2023/06/02 05:53:21;;;;;;;10.00;6.37;;;;;;;22.09;58.10;96882.16;5084076;28;20190;-75
2023/06/02 05:55:49;;;;;;;8.23;5.80;;;;;;;22.30;57.36;96880.13;5050180;28;20223;-72
2023/06/02 05:58:19;;;;;;;10.67;6.07;;;;;;;22.34;56.92;96877.03;5032691;28;20218;-73
2023/06/02 06:00:49;;;;;;;6.90;5.03;;;;;;;22.47;56.55;96877.53;5051018;28;20668;-75
2023/06/02 06:03:20;;;;;;;8.40;5.87;;;;;;;22.11;56.68;96874.94;5065143;28;20187;-71
2023/06/02 06:05:48;;;;;;;6.80;5.03;;;;;;;21.93;56.59;96879.31;5083641;28;20210;-71
2023/06/02 06:08:15;;;;;;;6.90;5.30;;;;;;;21.67;57.29;96879.06;5066734;28;20287;-74
2023/06/02 06:10:42;;;;;;;7.60;6.10;;;;;;;21.33;58.93;96867.34;5067697;28;20195;-70
2023/06/02 06:13:12;;;;;;;10.00;6.90;;;;;;;21.81;58.37;96890.03;5049498;28;20252;-75
2023/06/02 06:15:40;;;;;;;11.03;5.90;;;;;;;21.94;57.81;96894.16;5048712;28;20287;-73
2023/06/02 06:18:07;;;;;;;11.33;6.10;;;;;;;22.11;57.19;96891.59;5049772;28;20219;-76
2023/06/02 06:20:34;;;;;;;6.70;5.73;;;;;;;22.42;57.25;96890.34;5048223;28;20283;-73
2023/06/02 06:23:01;;;;;;;12.83;6.67;;;;;;;22.85;56.73;96891.53;5049625;28;20278;-72
2023/06/02 06:25:28;;;;;;;8.03;6.13;;;;;;;23.08;55.17;96887.47;5048067;28;20657;-73
2023/06/02 06:27:55;;;;;;;8.23;5.30;;;;;;;23.03;53.67;96893.19;5066168;28;20576;-71
2023/06/02 06:30:24;;;;;;;9.77;6.20;;;;;;;23.14;54.18;96892.16;5063890;28;20217;-75
2023/06/02 06:32:56;;;;;;;7.97;5.53;;;;;;;22.82;54.91;96899.72;5028884;28;20812;-73
2023/06/02 06:35:23;;;;;;;6.30;5.47;;;;;;;22.58;56.20;96895.88;5028407;28;20259;-73
2023/06/02 06:37:50;;;;;;;10.57;5.63;;;;;;;23.13;54.76;96898.41;5027823;28;20193;-73
2023/06/02 06:40:18;;;;;;;20.53;10.37;;;;;;;23.65;54.71;96894.94;5046984;28;20190;-72
2023/06/02 06:42:46;;;;;;;9.17;5.77;;;;;;;23.80;53.70;96895.19;5027696;28;20192;-74
2023/06/02 06:45:25;;;;;;;7.83;4.70;;;;;;;23.30;52.22;96900.22;5044047;28;20178;-78
2023/06/02 06:47:53;;;;;;;11.07;4.77;;;;;;;23.46;52.94;96881.88;5011871;28;20212;-77
2023/06/02 06:50:21;;;;;;;7.83;5.07;;;;;;;23.83;52.91;96895.72;5028073;28;20666;-76
2023/06/02 06:52:49;;;;;;;8.90;5.20;;;;;;;24.13;52.26;96887.31;5062179;28;20228;-77
2023/06/02 06:55:16;;;;;;;6.07;4.67;;;;;;;23.29;51.32;96891.47;5045044;28;20226;-72
2023/06/02 06:57:43;;;;;;;8.07;5.47;;;;;;;23.44;51.16;96873.28;5028364;28;20190;-74
2023/06/02 07:00:11;;;;;;;5.93;4.27;;;;;;;23.67;50.17;96879.75;5027163;28;20198;-75
2023/06/02 07:02:38;;;;;;;8.57;4.97;;;;;;;24.07;50.29;96885.31;5028779;28;20197;-75
2023/06/02 07:05:06;;;;;;;7.03;4.27;;;;;;;23.89;50.31;96889.81;5045915;28;20191;-71
2023/06/02 07:07:33;;;;;;;8.03;4.33;;;;;;;23.91;50.34;96893.13;5045986;28;20241;-73
2023/06/02 07:10:01;;;;;;;6.60;4.30;;;;;;;24.23;50.32;96890.69;5046462;28;20196;-73
2023/06/02 07:12:29;;;;;;;9.70;5.37;;;;;;;24.32;50.07;96874.88;5027545;28;20534;-76
2023/06/02 07:14:56;;;;;;;6.83;4.97;;;;;;;24.58;49.92;96878.28;5046513;28;20238;-78
2023/06/02 07:17:23;;;;;;;5.17;4.67;;;;;;;24.80;49.49;96883.00;5026907;28;20238;-72
2023/06/02 07:19:51;;;;;;;8.00;4.77;;;;;;;25.00;48.96;96887.00;5046680;28;20192;-74
2023/06/02 07:22:18;;;;;;;7.90;4.57;;;;;;;25.01;46.57;96886.88;5044771;28;20212;-75
2023/06/02 07:24:45;;;;;;;6.97;4.77;;;;;;;25.02;46.45;96879.72;5045978;28;20251;-74
2023/06/02 07:27:13;;;;;;;6.80;4.50;;;;;;;25.01;45.57;96856.88;5046105;28;20234;-74
2023/06/02 07:29:42;;;;;;;5.00;4.00;;;;;;;24.93;44.05;96880.72;5045030;28;20193;-78
2023/06/02 07:32:09;;;;;;;7.67;4.23;;;;;;;25.20;44.42;96884.91;5046316;28;20284;-74
2023/06/02 07:34:37;;;;;;;6.53;4.13;;;;;;;24.91;43.06;96880.06;5044717;28;20201;-71
2023/06/02 07:37:05;;;;;;;8.23;4.23;;;;;;;25.06;41.28;96886.34;5046508;28;20189;-72
2023/06/02 07:39:32;;;;;;;7.50;4.47;;;;;;;24.93;41.32;96897.47;5044996;28;20282;-71
2023/06/02 07:41:59;;;;;;;6.87;4.30;;;;;;;25.01;42.55;96894.81;5045852;28;20284;-73
2023/06/02 07:44:26;;;;;;;5.03;4.10;;;;;;;24.87;45.33;96891.97;5027851;28;20271;-71
2023/06/02 07:46:54;;;;;;;6.17;4.60;;;;;;;24.67;44.63;96904.59;5061223;28;20197;-73
2023/06/02 07:49:25;;;;;;;5.77;4.13;;;;;;;24.40;46.37;96888.13;5032038;28;20645;-73
2023/06/02 07:51:53;;;;;;;5.13;4.03;;;;;;;24.21;46.92;96897.94;5048507;28;20280;-71
2023/06/02 07:54:20;;;;;;;6.80;4.63;;;;;;;24.64;45.72;96898.81;5064625;28;20227;-71
2023/06/02 07:56:50;;;;;;;5.70;4.23;;;;;;;24.27;45.52;96877.13;5030504;28;20672;-71
2023/06/02 07:59:18;;;;;;;5.20;3.97;;;;;;;24.49;45.70;96884.50;5031727;28;20642;-72
2023/06/02 08:01:46;;;;;;;5.60;4.43;;;;;;;24.64;43.75;96873.16;5031923;28;20214;-72
2023/06/02 08:04:13;;;;;;;9.17;5.10;;;;;;;24.46;43.21;96883.00;5030926;28;20569;-72
2023/06/02 08:06:40;;;;;;;5.37;4.13;;;;;;;24.58;42.67;96878.28;5049919;28;20203;-71
2023/06/02 08:09:09;;;;;;;6.27;4.47;;;;;;;24.41;42.48;96868.59;5048699;28;20214;-71
2023/06/02 08:11:36;;;;;;;5.60;4.13;;;;;;;24.56;43.22;96875.78;5049593;28;20207;-70
2023/06/02 08:14:04;;;;;;;7.33;4.80;;;;;;;24.92;42.49;96873.75;5048504;28;20189;-70
2023/06/02 08:16:31;;;;;;;6.57;4.20;;;;;;;25.27;42.09;96862.03;5030841;28;20260;-70
2023/06/02 08:19:11;;;;;;;7.27;4.37;;;;;;;25.01;41.60;96862.19;5049322;28;20188;-71
2023/06/02 08:21:40;;;;;;;6.83;3.97;;;;;;;25.20;41.05;96872.47;5048632;28;20181;-74
2023/06/02 08:24:08;;;;;;;8.43;4.50;;;;;;;25.35;40.28;96868.16;5049286;28;20192;-71
2023/06/02 08:26:39;;;;;;;6.67;3.83;;;;;;;25.13;41.17;96870.63;5013470;28;20638;-73
2023/06/02 08:29:11;;;;;;;5.07;3.80;;;;;;;25.15;40.33;96861.53;5049722;28;20732;-72
2023/06/02 08:31:48;;;;;;;9.33;6.50;;;;;;;25.22;40.26;96875.81;5045657;28;20252;-70
2023/06/02 08:34:20;;;;;;;4.97;4.00;;;;;;;25.13;40.73;96862.69;5048574;28;20289;-71
2023/06/02 08:36:52;;;;;;;7.80;4.70;;;;;;;25.48;40.61;96860.59;5048740;28;20249;-74
2023/06/02 08:39:19;;;;;;;10.30;6.90;;;;;;;25.76;41.29;96863.72;5029523;28;20221;-73
2023/06/02 08:41:50;;;;;;;8.83;5.87;;;;;;;25.81;40.11;96856.91;5048192;28;20255;-75
2023/06/02 08:44:17;;;;;;;8.27;4.47;;;;;;;25.74;40.00;96863.03;5029397;28;20210;-72
2023/06/02 08:46:48;;;;;;;7.80;4.17;;;;;;;25.86;39.43;96866.19;5030752;28;20661;-74
2023/06/02 08:49:18;;;;;;;5.90;4.33;;;;;;;25.94;39.58;96864.34;5047929;28;20502;-76
2023/06/02 08:51:51;;;;;;;7.97;4.73;;;;;;;25.56;37.79;96873.84;5063533;28;20235;-78
2023/06/02 08:54:20;;;;;;;6.63;4.47;;;;;;;25.73;39.27;96864.88;5048810;28;20178;-79
2023/06/02 08:56:49;;;;;;;10.63;5.87;;;;;;;25.60;39.16;96838.03;5029142;28;20721;-71
2023/06/02 08:59:20;;;;;;;5.53;4.03;;;;;;;25.27;38.20;96848.78;5047831;28;20225;-72
2023/06/02 09:01:47;;;;;;;35.13;28.10;;;;;;;25.27;37.80;96844.31;5047419;28;20696;-71
2023/06/02 09:04:14;;;;;;;6.30;4.73;;;;;;;25.14;38.38;96840.50;5030803;28;20245;-72
2023/06/02 09:06:43;;;;;;;8.37;5.50;;;;;;;25.51;37.26;96844.31;5047831;28;20214;-73
2023/06/02 09:09:11;;;;;;;6.87;4.50;;;;;;;25.55;39.35;96843.03;5048016;28;20216;-73
2023/06/02 09:11:39;;;;;;;7.60;4.40;;;;;;;25.86;38.50;96837.00;5048405;28;20189;-75
2023/06/02 09:14:19;;;;;;;5.13;3.83;;;;;;;25.97;39.01;96829.47;5062381;28;20190;-71
2023/06/02 09:16:47;;;;;;;8.57;4.57;;;;;;;26.23;39.88;96830.13;5030227;28;20322;-72
2023/06/02 09:19:15;;;;;;;6.60;4.70;;;;;;;26.33;39.27;96824.59;5012960;28;20203;-73
2023/06/02 09:21:42;;;;;;;7.20;5.37;;;;;;;26.39;39.27;96831.84;5013769;28;20570;-75
2023/06/02 09:24:10;;;;;;;7.83;4.10;;;;;;;26.45;38.77;96828.50;5062784;28;20221;-70
2023/06/02 09:26:49;;;;;;;10.97;6.03;;;;;;;26.16;38.40;96826.47;5030362;28;20273;-73
2023/06/02 09:29:18;;;;;;;5.90;4.67;;;;;;;26.24;38.67;96830.91;5030297;28;20185;-71
2023/06/02 09:31:55;;;;;;;5.53;3.90;;;;;;;26.36;38.75;96826.88;5046807;28;20233;-73
2023/06/02 09:34:25;;;;;;;11.13;7.37;;;;;;;26.47;38.35;96829.16;5048357;28;20261;-73
2023/06/02 09:36:53;;;;;;;6.47;4.07;;;;;;;26.21;38.15;96824.16;5029326;28;20252;-73
2023/06/02 09:39:34;;;;;;;6.63;4.30;;;;;;;25.80;38.81;96817.28;5050208;28;20190;-69
2023/06/02 09:42:02;;;;;;;5.50;4.17;;;;;;;26.17;37.95;96819.34;5013676;28;20210;-72
2023/06/02 09:44:29;;;;;;;7.90;4.13;;;;;;;25.63;39.54;96811.19;5027230;28;20201;-73
2023/06/02 09:46:56;;;;;;;6.93;4.70;;;;;;;25.88;40.70;96813.75;5057066;28;20664;-72
2023/06/02 09:49:38;;;;;;;7.17;4.83;;;;;;;26.22;40.09;96806.38;5051826;28;20205;-73
2023/06/02 09:52:14;;;;;;;6.60;4.83;;;;;;;26.54;40.38;96800.91;5052687;28;20294;-73
2023/06/02 09:54:46;;;;;;;6.43;4.57;;;;;;;26.78;39.65;96816.75;5068852;28;20514;-72
2023/06/02 09:57:15;;;;;;;4.73;3.97;;;;;;;26.45;39.27;96813.41;5049014;28;20224;-71
2023/06/02 09:59:44;;;;;;;4.40;3.90;;;;;;;26.20;39.67;96814.50;5077671;28;20201;-71
2023/06/02 10:02:15;;;;;;;5.80;4.10;;;;;;;26.31;39.94;96808.84;5028610;28;20207;-72
2023/06/02 10:04:45;;;;;;;6.37;3.77;;;;;;;26.39;41.05;96802.66;5030412;28;20201;-71
2023/06/02 10:07:30;;;;;;;10.37;5.50;;;;;;;26.68;40.64;96802.81;5028600;28;20192;-75
2023/06/02 10:10:21;;;;;;;6.37;4.20;;;;;;;26.75;39.42;96798.47;5046731;28;20213;-75
2023/06/02 10:13:16;;;;;;;8.87;4.60;;;;;;;26.28;40.08;96805.69;5030356;28;20205;-76
2023/06/02 10:15:46;;;;;;;4.97;4.33;;;;;;;25.94;40.03;96792.69;5063877;28;20244;-73
2023/06/02 10:18:46;;;;;;;6.33;4.17;;;;;;;26.09;40.27;96795.50;5050103;28;20694;-75
2023/06/02 10:21:37;;;;;;;7.90;4.20;;;;;;;26.12;40.75;96784.50;5049806;28;20573;-78
2023/06/02 10:24:24;;;;;;;7.13;4.30;;;;;;;26.14;40.57;96787.81;5018104;28;20246;-74
2023/06/02 10:27:18;;;;;;;7.07;4.47;;;;;;;26.36;40.42;96784.38;5049332;28;20193;-74
2023/06/02 10:29:53;;;;;;;7.77;4.50;;;;;;;26.52;39.48;96784.31;5048473;28;20632;-72
2023/06/02 10:32:27;;;;;;;6.37;3.90;;;;;;;26.16;40.20;96783.16;5081172;28;20283;-72
2023/06/02 10:34:57;;;;;;;5.03;4.03;;;;;;;26.41;39.37;96779.41;5049748;28;20189;-73
2023/06/02 10:37:25;;;;;;;5.93;4.47;;;;;;;26.57;38.58;96779.28;5066183;28;20727;-76
2023/06/02 10:39:56;;;;;;;6.90;4.70;;;;;;;26.76;37.84;96780.69;5048971;28;20224;-78
2023/06/02 10:42:25;;;;;;;7.53;4.67;;;;;;;25.84;39.86;96782.25;5067018;28;20209;-73
2023/06/02 10:45:22;;;;;;;9.43;4.50;;;;;;;26.08;39.52;96777.88;5066510;28;20192;-78
2023/06/02 10:47:50;;;;;;;7.03;4.30;;;;;;;25.69;40.17;96765.41;5049467;28;20186;-80
2023/06/02 10:50:21;;;;;;;7.97;4.30;;;;;;;26.24;38.92;96764.53;5031445;28;20196;-77
2023/06/02 10:52:58;;;;;;;8.20;6.20;;;;;;;26.22;38.95;96770.03;5067055;28;20201;-78
2023/06/02 10:55:34;;;;;;;7.43;5.03;;;;;;;26.66;39.48;96764.97;5032512;28;20636;-81
2023/06/02 10:58:05;;;;;;;5.70;4.43;;;;;;;26.74;39.54;96780.88;5066791;28;20181;-73
2023/06/02 11:00:35;;;;;;;6.43;4.27;;;;;;;26.64;39.99;96761.66;5049257;28;20197;-75
2023/06/02 11:03:28;;;;;;;8.80;4.50;;;;;;;26.04;41.79;96750.00;5031252;28;20208;-75
2023/06/02 11:06:21;;;;;;;5.13;3.90;;;;;;;26.20;40.93;96756.09;5067413;28;20193;-72
2023/06/02 11:08:51;;;;;;;9.03;5.13;;;;;;;26.56;40.52;96745.78;5032189;28;20228;-74
2023/06/02 11:11:53;;;;;;;5.60;4.00;;;;;;;26.12;40.76;96748.19;5065666;28;20185;-73
2023/06/02 11:14:21;;;;;;;6.83;4.73;;;;;;;26.25;40.56;96729.03;5066983;28;20204;-73
2023/06/02 11:17:47;;;;;;;7.40;4.30;;;;;;;26.28;39.79;96744.59;5048057;28;20232;-74
2023/06/02 11:20:31;;;;;;;8.47;4.53;;;;;;;26.49;39.70;96739.50;5023236;28;20202;-77
2023/06/02 11:23:06;;;;;;;7.07;4.43;;;;;;;26.61;38.60;96738.09;5024340;28;20198;-73
2023/06/02 11:25:36;;;;;;;6.70;4.20;;;;;;;26.14;38.75;96727.59;5033811;28;20215;-73
2023/06/02 11:28:21;;;;;;;5.47;4.33;;;;;;;26.03;40.11;96727.94;5065963;28;20208;-73
2023/06/02 11:31:09;;;;;;;7.20;4.20;;;;;;;26.46;39.26;96730.06;5019483;28;20230;-72
2023/06/02 11:33:52;;;;;;;7.87;4.40;;;;;;;26.62;39.21;96729.13;5023772;28;20194;-75
2023/06/02 11:36:34;;;;;;;8.40;4.10;;;;;;;26.43;38.50;96726.94;5008857;28;20698;-72
2023/06/02 11:39:08;;;;;;;6.63;4.33;;;;;;;26.80;38.87;96703.09;5008228;28;20637;-75
2023/06/02 11:41:36;;;;;;;6.60;4.00;;;;;;;26.79;37.97;96708.63;5025495;28;20185;-72
2023/06/02 11:44:09;;;;;;;9.53;3.97;;;;;;;26.71;38.36;96706.00;5026953;28;20198;-72